Nakina, Canada
Current Conditions -  °F | °C
As of 7:00 AM on Thursday 18 Dec 2014 (Local Time) from CYGQ Reporting Station
Clear Clear  
Wind Chill: -9°   Ceiling: Unl
Heat Index: -9°   Visibility: 15mi
Dew Point: -13°   Wind: 2mph
Humidity: 84%   Direction: 250°WSW
Pressure: 30.31"   Gusts: NA
Location:  50.18°N, 86.7°W
Report Text: CYGQ 181200Z 25002KT 15SM SKC M23/M25 A3031 RMK SLP305
Loading
Personal Weather Stations






























Interactive Weather Map New forecast layout! Learn more

10-Day Weather Forecast

Advertisements
Track Severe Weather on mobile